Terminal Aerodrome Forecast
Issued by NWS Des Moines, IA

Home | Current Version | Previous Version | Text Only | Print | Product List | Glossary On
Versions: 1 2 3 4 5 6 7 8 9 10 11 12 13 14 15 16 17 18 19 20 21 22 23 24 25
000
FTUS43 KDMX 301722
TAFDSM
TAF
KDSM 301722Z 3018/0118 06011KT 3SM -RA BR OVC006
     FM302000 06011KT 6SM BR VCSH SCT006 OVC009
     FM010000 05010KT 5SM BR OVC009
     FM011000 03008KT 3SM BR VCSH SCT004 OVC008=

USA.gov is the U.S. government's official web portal to all federal, state and local government web resources and services.